Terminal Aerodrome Forecast
Issued by NWS Jackson, KY

Home | Current Version | Previous Version | Text Only | Print | Product List | Glossary On
Versions: 1 2 3 4 5 6 7 8 9 10 11 12 13 14
657
FTUS43 KJKL 212326
TAFLOZ
TAF
KLOZ 212326Z 2200/2224 36009KT P6SM BKN050
     FM220900 01010KT P6SM BKN150
     FM221500 04009KT P6SM SCT250=

USA.gov is the U.S. government's official web portal to all federal, state and local government web resources and services.